sensor_id;sensor_type;location;lat;lon;timestamp;pressure;altitude;pressure_sealevel;temperature;humidity
28927;BME280;16038;47.692;9.400;2022-11-02T00:01:13;97327.69;;;7.14;100.00
28927;BME280;16038;47.692;9.400;2022-11-02T00:03:42;97337.28;;;7.20;100.00
28927;BME280;16038;47.692;9.400;2022-11-02T00:06:08;97331.56;;;7.34;100.00
28927;BME280;16038;47.692;9.400;2022-11-02T00:08:33;97333.19;;;7.35;100.00
28927;BME280;16038;47.692;9.400;2022-11-02T00:10:58;97332.53;;;7.38;100.00
28927;BME280;16038;47.692;9.400;2022-11-02T00:13:24;97335.84;;;7.44;100.00
28927;BME280;16038;47.692;9.400;2022-11-02T00:15:49;97336.00;;;7.47;100.00
28927;BME280;16038;47.692;9.400;2022-11-02T00:18:15;97337.72;;;7.52;100.00
28927;BME280;16038;47.692;9.400;2022-11-02T00:20:41;97335.44;;;7.54;100.00
28927;BME280;16038;47.692;9.400;2022-11-02T00:23:08;97341.44;;;7.47;100.00
28927;BME280;16038;47.692;9.400;2022-11-02T00:25:38;97341.84;;;7.58;100.00
28927;BME280;16038;47.692;9.400;2022-11-02T00:28:06;97345.69;;;7.57;100.00
28927;BME280;16038;47.692;9.400;2022-11-02T00:30:32;97341.84;;;7.58;100.00
28927;BME280;16038;47.692;9.400;2022-11-02T00:32:57;97358.78;;;7.43;100.00
28927;BME280;16038;47.692;9.400;2022-11-02T00:35:22;97345.25;;;7.25;100.00
28927;BME280;16038;47.692;9.400;2022-11-02T00:37:48;97346.81;;;6.97;100.00
28927;BME280;16038;47.692;9.400;2022-11-02T00:40:13;97358.81;;;7.04;100.00
28927;BME280;16038;47.692;9.400;2022-11-02T00:42:39;97358.69;;;7.01;100.00
28927;BME280;16038;47.692;9.400;2022-11-02T00:45:05;97365.75;;;6.93;100.00
28927;BME280;16038;47.692;9.400;2022-11-02T00:47:31;97373.16;;;6.84;100.00
28927;BME280;16038;47.692;9.400;2022-11-02T00:49:57;97366.59;;;6.76;100.00
28927;BME280;16038;47.692;9.400;2022-11-02T00:52:23;97381.03;;;6.68;100.00
28927;BME280;16038;47.692;9.400;2022-11-02T00:54:48;97379.63;;;6.62;100.00
28927;BME280;16038;47.692;9.400;2022-11-02T00:57:14;97384.56;;;6.68;100.00
28927;BME280;16038;47.692;9.400;2022-11-02T00:59:39;97378.28;;;6.77;100.00
28927;BME280;16038;47.692;9.400;2022-11-02T01:02:04;97387.28;;;6.68;100.00
28927;BME280;16038;47.692;9.400;2022-11-02T01:04:30;97384.56;;;6.68;100.00
28927;BME280;16038;47.692;9.400;2022-11-02T01:06:55;97386.47;;;6.68;100.00
28927;BME280;16038;47.692;9.400;2022-11-02T01:09:20;97375.22;;;6.87;100.00
28927;BME280;16038;47.692;9.400;2022-11-02T01:11:46;97382.88;;;7.02;100.00
28927;BME280;16038;47.692;9.400;2022-11-02T01:14:11;97385.03;;;7.18;100.00
28927;BME280;16038;47.692;9.400;2022-11-02T01:16:40;97380.47;;;7.31;100.00
28927;BME280;16038;47.692;9.400;2022-11-02T01:19:06;97381.50;;;7.47;100.00
28927;BME280;16038;47.692;9.400;2022-11-02T01:21:32;97390.25;;;7.61;100.00
28927;BME280;16038;47.692;9.400;2022-11-02T01:23:57;97389.00;;;7.59;100.00
28927;BME280;16038;47.692;9.400;2022-11-02T01:26:23;97386.50;;;7.45;100.00
28927;BME280;16038;47.692;9.400;2022-11-02T01:28:48;97378.47;;;7.49;100.00
28927;BME280;16038;47.692;9.400;2022-11-02T01:31:13;97376.56;;;7.49;100.00
28927;BME280;16038;47.692;9.400;2022-11-02T01:33:45;97374.06;;;7.35;100.00
28927;BME280;16038;47.692;9.400;2022-11-02T01:36:13;97374.75;;;7.23;100.00
28927;BME280;16038;47.692;9.400;2022-11-02T01:38:38;97376.56;;;7.49;100.00
28927;BME280;16038;47.692;9.400;2022-11-02T01:41:04;97374.53;;;7.67;100.00
28927;BME280;16038;47.692;9.400;2022-11-02T01:43:32;97370.53;;;7.85;100.00
28927;BME280;16038;47.692;9.400;2022-11-02T01:48:42;97365.44;;;8.17;100.00
28927;BME280;16038;47.692;9.400;2022-11-02T01:51:17;97361.72;;;8.22;100.00
28927;BME280;16038;47.692;9.400;2022-11-02T01:53:46;97364.38;;;8.31;100.00
28927;BME280;16038;47.692;9.400;2022-11-02T01:56:15;97353.53;;;8.22;100.00
28927;BME280;16038;47.692;9.400;2022-11-02T01:58:44;97358.34;;;8.25;100.00
28927;BME280;16038;47.692;9.400;2022-11-02T02:01:11;97364.59;;;8.26;100.00
28927;BME280;16038;47.692;9.400;2022-11-02T02:03:36;97360.50;;;8.32;100.00
28927;BME280;16038;47.692;9.400;2022-11-02T02:06:09;97356.00;;;8.36;100.00
28927;BME280;16038;47.692;9.400;2022-11-02T02:08:37;97353.38;;;8.39;100.00
28927;BME280;16038;47.692;9.400;2022-11-02T02:11:27;97352.25;;;8.40;100.00
28927;BME280;16038;47.692;9.400;2022-11-02T02:13:58;97355.28;;;8.39;100.00
28927;BME280;16038;47.692;9.400;2022-11-02T02:19:05;97338.75;;;8.44;100.00
28927;BME280;16038;47.692;9.400;2022-11-02T02:21:41;97347.94;;;8.39;100.00
28927;BME280;16038;47.692;9.400;2022-11-02T02:29:48;97358.59;;;8.11;100.00
28927;BME280;16038;47.692;9.400;2022-11-02T02:34:54;97356.94;;;8.19;100.00
28927;BME280;16038;47.692;9.400;2022-11-02T02:37:41;97366.44;;;8.34;100.00
28927;BME280;16038;47.692;9.400;2022-11-02T02:43:05;97353.13;;;8.66;100.00
28927;BME280;16038;47.692;9.400;2022-11-02T02:45:36;97351.91;;;8.75;100.00
28927;BME280;16038;47.692;9.400;2022-11-02T02:48:05;97355.25;;;8.93;100.00
28927;BME280;16038;47.692;9.400;2022-11-02T02:50:37;97348.63;;;8.94;100.00
28927;BME280;16038;47.692;9.400;2022-11-02T02:53:06;97348.50;;;8.91;100.00
28927;BME280;16038;47.692;9.400;2022-11-02T02:55:36;97367.09;;;8.97;100.00
28927;BME280;16038;47.692;9.400;2022-11-02T02:58:03;97362.38;;;8.86;100.00
28927;BME280;16038;47.692;9.400;2022-11-02T03:00:33;97361.69;;;8.76;100.00
28927;BME280;16038;47.692;9.400;2022-11-02T03:03:02;97363.28;;;8.65;100.00
28927;BME280;16038;47.692;9.400;2022-11-02T03:05:31;97361.53;;;8.60;100.00
28927;BME280;16038;47.692;9.400;2022-11-02T03:08:04;97355.63;;;8.58;100.00
28927;BME280;16038;47.692;9.400;2022-11-02T03:10:43;97360.97;;;8.55;100.00
28927;BME280;16038;47.692;9.400;2022-11-02T03:19:00;97367.13;;;8.52;100.00
28927;BME280;16038;47.692;9.400;2022-11-02T03:21:41;97357.91;;;8.56;100.00
28927;BME280;16038;47.692;9.400;2022-11-02T03:24:12;97356.69;;;8.66;100.00
28927;BME280;16038;47.692;9.400;2022-11-02T03:26:49;97359.41;;;8.66;100.00
28927;BME280;16038;47.692;9.400;2022-11-02T03:29:25;97354.63;;;8.63;100.00
28927;BME280;16038;47.692;9.400;2022-11-02T03:32:03;97351.06;;;8.50;100.00
28927;BME280;16038;47.692;9.400;2022-11-02T03:34:38;97354.78;;;8.46;100.00
28927;BME280;16038;47.692;9.400;2022-11-02T03:37:19;97354.97;;;8.40;100.00
28927;BME280;16038;47.692;9.400;2022-11-02T03:40:23;97357.69;;;8.40;100.00
28927;BME280;16038;47.692;9.400;2022-11-02T03:42:47;97362.19;;;8.45;100.00
28927;BME280;16038;47.692;9.400;2022-11-02T03:45:23;97351.28;;;8.45;100.00
28927;BME280;16038;47.692;9.400;2022-11-02T03:47:53;97354.00;;;8.45;100.00
28927;BME280;16038;47.692;9.400;2022-11-02T03:50:21;97350.72;;;8.52;100.00
28927;BME280;16038;47.692;9.400;2022-11-02T03:52:50;97362.94;;;8.67;100.00
28927;BME280;16038;47.692;9.400;2022-11-02T03:55:24;97354.41;;;8.68;100.00
28927;BME280;16038;47.692;9.400;2022-11-02T03:57:51;97356.34;;;8.80;100.00
28927;BME280;16038;47.692;9.400;2022-11-02T04:00:21;97368.09;;;8.93;100.00
28927;BME280;16038;47.692;9.400;2022-11-02T04:02:51;97362.75;;;8.96;100.00
28927;BME280;16038;47.692;9.400;2022-11-02T04:05:17;97365.72;;;8.91;100.00
28927;BME280;16038;47.692;9.400;2022-11-02T04:07:45;97369.88;;;8.76;100.00
28927;BME280;16038;47.692;9.400;2022-11-02T04:10:31;97375.91;;;8.70;100.00
28927;BME280;16038;47.692;9.400;2022-11-02T04:12:57;97378.78;;;8.73;100.00
28927;BME280;16038;47.692;9.400;2022-11-02T04:15:42;97369.34;;;8.83;100.00
28927;BME280;16038;47.692;9.400;2022-11-02T04:18:08;97380.84;;;8.89;100.00
28927;BME280;16038;47.692;9.400;2022-11-02T04:20:52;97371.63;;;8.93;100.00
28927;BME280;16038;47.692;9.400;2022-11-02T04:23:18;97369.59;;;9.03;100.00
28927;BME280;16038;47.692;9.400;2022-11-02T04:26:03;97378.13;;;9.01;100.00
28927;BME280;16038;47.692;9.400;2022-11-02T04:28:29;97376.31;;;9.05;100.00
28927;BME280;16038;47.692;9.400;2022-11-02T04:30:57;97382.72;;;9.09;100.00
28927;BME280;16038;47.692;9.400;2022-11-02T04:33:23;97381.22;;;9.12;100.00
28927;BME280;16038;47.692;9.400;2022-11-02T04:36:05;97381.34;;;9.15;100.00
28927;BME280;16038;47.692;9.400;2022-11-02T04:38:30;97376.22;;;9.26;100.00
28927;BME280;16038;47.692;9.400;2022-11-02T04:41:10;97390.69;;;9.27;100.00
28927;BME280;16038;47.692;9.400;2022-11-02T04:43:55;97388.16;;;9.22;100.00
28927;BME280;16038;47.692;9.400;2022-11-02T04:46:21;97397.41;;;9.29;100.00
28927;BME280;16038;47.692;9.400;2022-11-02T04:48:48;97399.22;;;9.25;100.00
28927;BME280;16038;47.692;9.400;2022-11-02T04:51:13;97394.31;;;9.31;100.00
28927;BME280;16038;47.692;9.400;2022-11-02T04:53:39;97399.22;;;9.37;100.00
28927;BME280;16038;47.692;9.400;2022-11-02T04:56:05;97384.75;;;9.37;100.00
28927;BME280;16038;47.692;9.400;2022-11-02T04:58:30;97387.03;;;9.35;100.00
28927;BME280;16038;47.692;9.400;2022-11-02T05:00:56;97389.31;;;9.33;100.00
28927;BME280;16038;47.692;9.400;2022-11-02T05:03:21;97394.31;;;9.31;100.00
28927;BME280;16038;47.692;9.400;2022-11-02T05:05:47;97391.13;;;9.29;100.00
28927;BME280;16038;47.692;9.400;2022-11-02T05:08:12;97396.25;;;9.30;100.00
28927;BME280;16038;47.692;9.400;2022-11-02T05:10:37;97391.69;;;9.34;100.00
28927;BME280;16038;47.692;9.400;2022-11-02T05:13:03;97393.53;;;9.43;100.00
28927;BME280;16038;47.692;9.400;2022-11-02T05:15:28;97389.06;;;9.50;100.00
28927;BME280;16038;47.692;9.400;2022-11-02T05:17:54;97384.66;;;9.58;100.00
28927;BME280;16038;47.692;9.400;2022-11-02T05:20:19;97385.88;;;9.61;100.00
28927;BME280;16038;47.692;9.400;2022-11-02T05:22:45;97390.91;;;9.59;100.00
28927;BME280;16038;47.692;9.400;2022-11-02T05:25:10;97404.25;;;9.60;100.00
28927;BME280;16038;47.692;9.400;2022-11-02T05:27:36;97396.25;;;9.55;100.00
28927;BME280;16038;47.692;9.400;2022-11-02T05:30:03;97396.94;;;9.52;100.00
28927;BME280;16038;47.692;9.400;2022-11-02T05:32:29;97387.72;;;9.56;100.00
28927;BME280;16038;47.692;9.400;2022-11-02T05:34:54;97395.00;;;9.65;100.00
28927;BME280;16038;47.692;9.400;2022-11-02T05:37:19;97396.59;;;9.66;100.00
28927;BME280;16038;47.692;9.400;2022-11-02T05:39:45;97393.41;;;9.64;100.00
28927;BME280;16038;47.692;9.400;2022-11-02T05:42:10;97399.34;;;9.66;100.00
28927;BME280;16038;47.692;9.400;2022-11-02T05:44:35;97400.00;;;9.63;100.00
28927;BME280;16038;47.692;9.400;2022-11-02T05:47:01;97398.28;;;9.70;100.00
28927;BME280;16038;47.692;9.400;2022-11-02T05:49:27;97404.25;;;9.72;100.00
28927;BME280;16038;47.692;9.400;2022-11-02T05:51:53;97402.28;;;9.73;100.00
28927;BME280;16038;47.692;9.400;2022-11-02T05:54:19;97397.94;;;9.72;100.00
28927;BME280;16038;47.692;9.400;2022-11-02T05:56:45;97409.81;;;9.64;100.00
28927;BME280;16038;47.692;9.400;2022-11-02T05:59:10;97413.34;;;9.52;100.00
28927;BME280;16038;47.692;9.400;2022-11-02T06:01:35;97411.88;;;9.54;100.00
28927;BME280;16038;47.692;9.400;2022-11-02T06:04:01;97413.56;;;9.59;100.00
28927;BME280;16038;47.692;9.400;2022-11-02T06:06:27;97418.72;;;9.61;100.00
28927;BME280;16038;47.692;9.400;2022-11-02T06:08:52;97425.44;;;9.51;100.00
28927;BME280;16038;47.692;9.400;2022-11-02T06:11:18;97430.53;;;9.52;100.00
28927;BME280;16038;47.692;9.400;2022-11-02T06:13:43;97430.53;;;9.52;100.00
28927;BME280;16038;47.692;9.400;2022-11-02T06:16:10;97430.53;;;9.52;100.00
28927;BME280;16038;47.692;9.400;2022-11-02T06:18:37;97445.16;;;9.56;100.00
28927;BME280;16038;47.692;9.400;2022-11-02T06:21:03;97446.50;;;9.63;100.00
28927;BME280;16038;47.692;9.400;2022-11-02T06:23:29;97456.56;;;9.71;100.00
28927;BME280;16038;47.692;9.400;2022-11-02T06:25:56;97454.16;;;9.82;100.00
28927;BME280;16038;47.692;9.400;2022-11-02T06:28:23;97451.09;;;9.83;100.00
28927;BME280;16038;47.692;9.400;2022-11-02T06:30:49;97459.75;;;9.85;100.00
28927;BME280;16038;47.692;9.400;2022-11-02T06:33:15;97457.78;;;9.86;100.00
28927;BME280;16038;47.692;9.400;2022-11-02T06:35:49;97459.41;;;9.87;100.00
28927;BME280;16038;47.692;9.400;2022-11-02T06:38:17;97454.72;;;9.87;100.00
28927;BME280;16038;47.692;9.400;2022-11-02T06:40:43;97449.25;;;9.87;100.00
28927;BME280;16038;47.692;9.400;2022-11-02T06:43:08;97457.56;;;9.91;100.00
28927;BME280;16038;47.692;9.400;2022-11-02T06:45:34;97464.63;;;9.92;100.00
28927;BME280;16038;47.692;9.400;2022-11-02T06:47:59;97462.00;;;9.95;100.00
28927;BME280;16038;47.692;9.400;2022-11-02T06:50:25;97465.44;;;10.05;100.00
28927;BME280;16038;47.692;9.400;2022-11-02T06:52:51;97471.34;;;10.19;100.00
28927;BME280;16038;47.692;9.400;2022-11-02T06:55:17;97463.91;;;10.32;100.00
28927;BME280;16038;47.692;9.400;2022-11-02T06:57:43;97475.19;;;10.43;100.00
28927;BME280;16038;47.692;9.400;2022-11-02T07:00:13;97483.81;;;10.57;100.00
28927;BME280;16038;47.692;9.400;2022-11-02T07:02:42;97485.59;;;10.65;100.00
28927;BME280;16038;47.692;9.400;2022-11-02T07:05:08;97484.91;;;10.68;100.00
28927;BME280;16038;47.692;9.400;2022-11-02T07:07:33;97493.22;;;10.72;100.00
28927;BME280;16038;47.692;9.400;2022-11-02T07:09:58;97493.78;;;10.78;100.00
28927;BME280;16038;47.692;9.400;2022-11-02T07:12:24;97496.72;;;10.85;100.00
28927;BME280;16038;47.692;9.400;2022-11-02T07:14:49;97501.25;;;10.93;100.00
28927;BME280;16038;47.692;9.400;2022-11-02T07:17:15;97508.44;;;10.98;100.00
28927;BME280;16038;47.692;9.400;2022-11-02T07:19:40;97514.16;;;10.93;100.00
28927;BME280;16038;47.692;9.400;2022-11-02T07:22:06;97523.44;;;10.88;100.00
28927;BME280;16038;47.692;9.400;2022-11-02T07:24:32;97519.78;;;10.84;100.00
28927;BME280;16038;47.692;9.400;2022-11-02T07:26:57;97519.03;;;10.99;100.00
28927;BME280;16038;47.692;9.400;2022-11-02T07:29:22;97514.81;;;10.74;100.00
28927;BME280;16038;47.692;9.400;2022-11-02T07:31:48;97522.28;;;10.61;100.00
28927;BME280;16038;47.692;9.400;2022-11-02T07:34:14;97524.34;;;10.51;100.00
28927;BME280;16038;47.692;9.400;2022-11-02T07:36:39;97513.78;;;10.66;100.00
28927;BME280;16038;47.692;9.400;2022-11-02T07:39:06;97521.84;;;10.87;100.00
28927;BME280;16038;47.692;9.400;2022-11-02T07:41:33;97523.50;;;11.04;100.00
28927;BME280;16038;47.692;9.400;2022-11-02T07:43:59;97527.84;;;11.21;100.00
28927;BME280;16038;47.692;9.400;2022-11-02T07:46:24;97532.50;;;11.33;100.00
28927;BME280;16038;47.692;9.400;2022-11-02T07:48:50;97529.94;;;11.40;100.00
28927;BME280;16038;47.692;9.400;2022-11-02T07:51:15;97529.16;;;11.55;100.00
28927;BME280;16038;47.692;9.400;2022-11-02T07:53:41;97532.78;;;11.59;100.00
28927;BME280;16038;47.692;9.400;2022-11-02T07:56:06;97529.06;;;11.67;100.00
28927;BME280;16038;47.692;9.400;2022-11-02T07:58:32;97522.16;;;11.74;100.00
28927;BME280;16038;47.692;9.400;2022-11-02T08:00:59;97536.69;;;11.90;100.00
28927;BME280;16038;47.692;9.400;2022-11-02T08:03:25;97532.28;;;12.01;100.00
28927;BME280;16038;47.692;9.400;2022-11-02T08:05:51;97537.25;;;11.96;100.00
28927;BME280;16038;47.692;9.400;2022-11-02T08:08:20;97532.16;;;11.82;100.00
28927;BME280;16038;47.692;9.400;2022-11-02T08:10:49;97540.00;;;11.96;100.00
28927;BME280;16038;47.692;9.400;2022-11-02T08:13:17;97548.94;;;11.93;100.00
28927;BME280;16038;47.692;9.400;2022-11-02T08:15:44;97538.41;;;11.95;100.00
28927;BME280;16038;47.692;9.400;2022-11-02T08:18:23;97546.03;;;12.01;100.00
28927;BME280;16038;47.692;9.400;2022-11-02T08:20:53;97541.03;;;12.07;100.00
28927;BME280;16038;47.692;9.400;2022-11-02T08:23:19;97550.44;;;12.06;100.00
28927;BME280;16038;47.692;9.400;2022-11-02T08:25:46;97547.78;;;11.94;100.00
28927;BME280;16038;47.692;9.400;2022-11-02T08:28:18;97559.72;;;11.85;100.00
28927;BME280;16038;47.692;9.400;2022-11-02T08:30:44;97550.50;;;11.94;100.00
28927;BME280;16038;47.692;9.400;2022-11-02T08:33:12;97552.34;;;11.90;100.00
28927;BME280;16038;47.692;9.400;2022-11-02T08:35:41;97556.81;;;11.94;100.00
28927;BME280;16038;47.692;9.400;2022-11-02T08:38:07;97552.22;;;11.98;100.00
28927;BME280;16038;47.692;9.400;2022-11-02T08:40:33;97545.91;;;12.14;100.00
28927;BME280;16038;47.692;9.400;2022-11-02T08:43:01;97552.28;;;12.18;100.00
28927;BME280;16038;47.692;9.400;2022-11-02T08:45:28;97547.47;;;12.31;100.00
28927;BME280;16038;47.692;9.400;2022-11-02T08:47:54;97544.97;;;12.41;100.00
28927;BME280;16038;47.692;9.400;2022-11-02T08:50:20;97549.50;;;12.50;100.00
28927;BME280;16038;47.692;9.400;2022-11-02T08:52:46;97550.03;;;12.39;100.00
28927;BME280;16038;47.692;9.400;2022-11-02T08:55:11;97557.75;;;12.34;100.00
28927;BME280;16038;47.692;9.400;2022-11-02T08:57:47;97552.25;;;12.50;100.00
28927;BME280;16038;47.692;9.400;2022-11-02T09:00:13;97556.28;;;12.56;100.00
28927;BME280;16038;47.692;9.400;2022-11-02T09:02:38;97549.00;;;12.83;100.00
28927;BME280;16038;47.692;9.400;2022-11-02T09:05:04;97549.53;;;12.89;100.00
28927;BME280;16038;47.692;9.400;2022-11-02T09:07:30;97551.78;;;13.03;100.00
28927;BME280;16038;47.692;9.400;2022-11-02T09:09:55;97551.84;;;13.06;100.00
28927;BME280;16038;47.692;9.400;2022-11-02T09:12:21;97549.38;;;13.01;100.00
28927;BME280;16038;47.692;9.400;2022-11-02T09:14:49;97551.06;;;12.86;100.00
28927;BME280;16038;47.692;9.400;2022-11-02T09:17:14;97554.16;;;12.85;100.00
28927;BME280;16038;47.692;9.400;2022-11-02T09:19:40;97550.69;;;12.88;100.00
28927;BME280;16038;47.692;9.400;2022-11-02T09:22:05;97554.00;;;12.77;100.00
28927;BME280;16038;47.692;9.400;2022-11-02T09:24:30;97555.88;;;12.73;100.00
28927;BME280;16038;47.692;9.400;2022-11-02T09:26:56;97550.91;;;12.79;100.00
28927;BME280;16038;47.692;9.400;2022-11-02T09:29:21;97558.28;;;12.75;100.00
28927;BME280;16038;47.692;9.400;2022-11-02T09:31:47;97552.63;;;12.87;100.00
28927;BME280;16038;47.692;9.400;2022-11-02T09:34:14;97558.34;;;12.98;100.00
28927;BME280;16038;47.692;9.400;2022-11-02T09:36:39;97557.09;;;13.31;100.00
28927;BME280;16038;47.692;9.400;2022-11-02T09:39:05;97559.97;;;13.38;100.00
28927;BME280;16038;47.692;9.400;2022-11-02T09:41:45;97563.78;;;13.14;100.00
28927;BME280;16038;47.692;9.400;2022-11-02T09:44:24;97562.91;;;13.10;100.00
28927;BME280;16038;47.692;9.400;2022-11-02T09:46:53;97556.13;;;13.04;100.00
28927;BME280;16038;47.692;9.400;2022-11-02T09:49:22;97559.09;;;12.95;100.00
28927;BME280;16038;47.692;9.400;2022-11-02T09:51:54;97568.13;;;12.95;100.00
28927;BME280;16038;47.692;9.400;2022-11-02T09:54:43;97565.88;;;13.20;100.00
28927;BME280;16038;47.692;9.400;2022-11-02T09:57:14;97561.84;;;13.14;100.00
28927;BME280;16038;47.692;9.400;2022-11-02T09:59:40;97572.25;;;13.05;100.00
28927;BME280;16038;47.692;9.400;2022-11-02T10:05:20;97568.84;;;12.92;100.00
28927;BME280;16038;47.692;9.400;2022-11-02T10:10:39;97563.69;;;12.91;100.00
28927;BME280;16038;47.692;9.400;2022-11-02T10:16:36;97567.13;;;12.84;100.00
28927;BME280;16038;47.692;9.400;2022-11-02T10:19:08;97573.69;;;12.99;100.00
28927;BME280;16038;47.692;9.400;2022-11-02T10:21:37;97574.00;;;13.13;100.00
28927;BME280;16038;47.692;9.400;2022-11-02T10:24:26;97576.25;;;13.08;100.00
28927;BME280;16038;47.692;9.400;2022-11-02T10:26:59;97574.84;;;13.17;100.00
28927;BME280;16038;47.692;9.400;2022-11-02T10:32:00;97570.53;;;13.16;100.00
28927;BME280;16038;47.692;9.400;2022-11-02T10:34:27;97565.81;;;13.17;100.00
28927;BME280;16038;47.692;9.400;2022-11-02T10:37:30;97563.06;;;13.17;100.00
28927;BME280;16038;47.692;9.400;2022-11-02T10:43:24;97567.91;;;13.43;100.00
28927;BME280;16038;47.692;9.400;2022-11-02T10:51:21;97571.78;;;13.38;100.00
28927;BME280;16038;47.692;9.400;2022-11-02T10:53:50;97559.59;;;13.39;100.00
28927;BME280;16038;47.692;9.400;2022-11-02T11:01:24;97554.34;;;13.54;100.00
28927;BME280;16038;47.692;9.400;2022-11-02T11:04:00;97552.91;;;13.60;100.00
28927;BME280;16038;47.692;9.400;2022-11-02T11:06:39;97549.09;;;13.68;100.00
28927;BME280;16038;47.692;9.400;2022-11-02T11:09:14;97549.66;;;14.01;97.86
28927;BME280;16038;47.692;9.400;2022-11-02T11:11:40;97540.28;;;14.05;97.29
28927;BME280;16038;47.692;9.400;2022-11-02T11:14:14;97548.69;;;14.12;95.06
28927;BME280;16038;47.692;9.400;2022-11-02T11:16:42;97544.03;;;14.43;93.62
28927;BME280;16038;47.692;9.400;2022-11-02T11:19:20;97550.88;;;14.57;92.93
28927;BME280;16038;47.692;9.400;2022-11-02T11:21:47;97548.19;;;14.87;90.76
28927;BME280;16038;47.692;9.400;2022-11-02T11:26:44;97537.19;;;14.33;91.13
28927;BME280;16038;47.692;9.400;2022-11-02T11:29:22;97524.25;;;14.11;92.20
28927;BME280;16038;47.692;9.400;2022-11-02T11:31:48;97518.19;;;14.02;93.82
28927;BME280;16038;47.692;9.400;2022-11-02T11:34:49;97519.53;;;14.11;94.72
28927;BME280;16038;47.692;9.400;2022-11-02T11:37:18;97514.97;;;13.96;95.28
28927;BME280;16038;47.692;9.400;2022-11-02T11:39:44;97501.44;;;13.87;95.51
28927;BME280;16038;47.692;9.400;2022-11-02T11:42:18;97505.91;;;13.95;95.19
28927;BME280;16038;47.692;9.400;2022-11-02T11:44:46;97517.78;;;14.00;93.87
28927;BME280;16038;47.692;9.400;2022-11-02T11:47:23;97509.56;;;14.03;94.94
28927;BME280;16038;47.692;9.400;2022-11-02T11:49:49;97514.28;;;14.03;95.51
28927;BME280;16038;47.692;9.400;2022-11-02T11:52:26;97514.72;;;14.31;91.09
28927;BME280;16038;47.692;9.400;2022-11-02T11:55:00;97509.31;;;14.12;91.29
28927;BME280;16038;47.692;9.400;2022-11-02T11:57:31;97518.63;;;14.30;90.91
28927;BME280;16038;47.692;9.400;2022-11-02T11:59:59;97509.31;;;14.39;89.71
28927;BME280;16038;47.692;9.400;2022-11-02T12:02:34;97507.25;;;14.59;88.86
28927;BME280;16038;47.692;9.400;2022-11-02T12:05:20;97509.66;;;14.64;88.31
28927;BME280;16038;47.692;9.400;2022-11-02T12:35:15;97467.28;;;14.76;83.65
28927;BME280;16038;47.692;9.400;2022-11-02T12:46:12;97467.03;;;15.63;78.94
28927;BME280;16038;47.692;9.400;2022-11-02T12:49:00;97454.69;;;15.53;79.46
28927;BME280;16038;47.692;9.400;2022-11-02T12:51:33;97455.22;;;15.70;77.28
28927;BME280;16038;47.692;9.400;2022-11-02T12:54:10;97445.03;;;15.74;77.09
28927;BME280;16038;47.692;9.400;2022-11-02T12:56:46;97438.53;;;15.55;78.26
28927;BME280;16038;47.692;9.400;2022-11-02T12:59:29;97439.31;;;15.11;80.05
28927;BME280;16038;47.692;9.400;2022-11-02T13:02:25;97435.75;;;15.10;81.35
28927;BME280;16038;47.692;9.400;2022-11-02T13:04:54;97438.84;;;15.46;80.86
28927;BME280;16038;47.692;9.400;2022-11-02T13:07:26;97432.28;;;15.62;79.83
28927;BME280;16038;47.692;9.400;2022-11-02T13:12:25;97426.59;;;15.89;76.34
28927;BME280;16038;47.692;9.400;2022-11-02T13:14:54;97424.97;;;15.84;74.69
28927;BME280;16038;47.692;9.400;2022-11-02T13:20:08;97421.66;;;15.64;76.42
28927;BME280;16038;47.692;9.400;2022-11-02T13:22:39;97424.78;;;15.62;77.53
28927;BME280;16038;47.692;9.400;2022-11-02T13:25:17;97424.59;;;15.82;74.04
28927;BME280;16038;47.692;9.400;2022-11-02T13:28:15;97432.50;;;15.42;77.40
28927;BME280;16038;47.692;9.400;2022-11-02T13:30:42;97425.09;;;15.50;75.84
28927;BME280;16038;47.692;9.400;2022-11-02T13:33:22;97430.56;;;15.46;77.86
28927;BME280;16038;47.692;9.400;2022-11-02T13:35:48;97423.53;;;15.53;76.80
28927;BME280;16038;47.692;9.400;2022-11-02T13:38:31;97417.94;;;15.42;76.24
28927;BME280;16038;47.692;9.400;2022-11-02T13:43:59;97419.06;;;15.37;74.19
28927;BME280;16038;47.692;9.400;2022-11-02T13:49:21;97412.19;;;15.61;73.08
28927;BME280;16038;47.692;9.400;2022-11-02T13:51:52;97419.09;;;15.41;75.46
28927;BME280;16038;47.692;9.400;2022-11-02T13:56:55;97412.50;;;15.53;75.56
28927;BME280;16038;47.692;9.400;2022-11-02T13:59:32;97406.47;;;15.88;72.98
28927;BME280;16038;47.692;9.400;2022-11-02T14:02:00;97407.22;;;15.81;73.21
28927;BME280;16038;47.692;9.400;2022-11-02T14:04:27;97402.56;;;15.93;71.78
28927;BME280;16038;47.692;9.400;2022-11-02T14:07:04;97400.91;;;15.84;73.13
28927;BME280;16038;47.692;9.400;2022-11-02T14:12:10;97398.72;;;15.56;72.36
28927;BME280;16038;47.692;9.400;2022-11-02T14:14:36;97402.66;;;15.55;72.11
28927;BME280;16038;47.692;9.400;2022-11-02T14:19:50;97401.06;;;15.54;73.59
28927;BME280;16038;47.692;9.400;2022-11-02T14:22:17;97404.78;;;15.28;74.43
28927;BME280;16038;47.692;9.400;2022-11-02T14:48:29;97382.25;;;14.81;84.36
28927;BME280;16038;47.692;9.400;2022-11-02T14:51:03;97385.69;;;14.71;86.46
28927;BME280;16038;47.692;9.400;2022-11-02T14:53:35;97369.88;;;14.64;86.91
28927;BME280;16038;47.692;9.400;2022-11-02T14:56:01;97369.69;;;14.50;88.05
28927;BME280;16038;47.692;9.400;2022-11-02T14:58:32;97371.53;;;14.39;89.70
28927;BME280;16038;47.692;9.400;2022-11-02T15:01:12;97361.84;;;14.22;90.64
28927;BME280;16038;47.692;9.400;2022-11-02T15:03:39;97366.25;;;14.26;89.60
28927;BME280;16038;47.692;9.400;2022-11-02T15:06:21;97366.44;;;14.10;90.11
28927;BME280;16038;47.692;9.400;2022-11-02T15:09:02;97360.09;;;14.06;92.31
28927;BME280;16038;47.692;9.400;2022-11-02T15:23:01;97363.69;;;14.10;95.84
28927;BME280;16038;47.692;9.400;2022-11-02T15:25:38;97361.13;;;13.94;97.20
28927;BME280;16038;47.692;9.400;2022-11-02T15:28:10;97366.69;;;13.71;98.23
28927;BME280;16038;47.692;9.400;2022-11-02T15:30:41;97361.66;;;13.50;100.00